createdAt,value
2022-12-19T00:03:59.804Z,27.88
2022-12-19T00:09:02.062Z,27.50
2022-12-19T00:14:03.666Z,24.30
2022-12-19T00:19:05.376Z,25.45
2022-12-19T00:24:20.514Z,25.58
2022-12-19T00:29:23.400Z,25.88
2022-12-19T00:34:25.015Z,29.63
2022-12-19T00:39:26.599Z,30.40
2022-12-19T00:44:28.197Z,32.10
2022-12-19T00:49:29.726Z,34.25
2022-12-19T00:54:31.419Z,27.27
2022-12-19T00:59:33.362Z,30.27
2022-12-19T01:04:41.132Z,32.60
2022-12-19T01:09:43.323Z,27.33
2022-12-19T01:14:45.504Z,30.67
2022-12-19T01:19:47.053Z,27.48
2022-12-19T01:24:48.614Z,26.67
2022-12-19T01:29:52.924Z,26.13
2022-12-19T01:34:55.170Z,27.25
2022-12-19T01:39:56.705Z,30.40
2022-12-19T01:45:13.536Z,32.55
2022-12-19T01:50:20.612Z,54.47
2022-12-19T01:55:23.157Z,28.70
2022-12-19T02:00:24.803Z,33.58
2022-12-19T02:05:26.331Z,25.25
2022-12-19T02:10:27.889Z,27.42
2022-12-19T02:15:35.483Z,28.33
2022-12-19T02:21:24.865Z,27.42
2022-12-19T02:26:57.055Z,24.92
2022-12-19T02:32:36.400Z,25.88
2022-12-19T02:37:49.341Z,22.63
2022-12-19T02:42:59.522Z,22.70
2022-12-19T02:48:08.449Z,24.03
2022-12-19T02:53:12.442Z,26.75
2022-12-19T02:58:41.287Z,29.42
2022-12-19T03:03:55.843Z,50.17
2022-12-19T03:09:26.546Z,34.03
2022-12-19T03:14:30.175Z,34.75
2022-12-19T03:19:32.212Z,30.50
2022-12-19T03:24:33.880Z,32.28
2022-12-19T03:29:59.957Z,28.95
2022-12-19T03:35:09.637Z,23.17
2022-12-19T03:40:15.203Z,28.90
2022-12-19T03:45:29.273Z,29.10
2022-12-19T03:50:42.573Z,28.52
2022-12-19T03:55:53.487Z,27.73
2022-12-19T04:00:57.654Z,23.98
2022-12-19T04:06:02.873Z,25.05
2022-12-19T04:11:11.169Z,25.58
2022-12-19T04:16:24.255Z,22.13
2022-12-19T04:21:33.169Z,25.52
2022-12-19T04:26:41.301Z,27.67
2022-12-19T04:31:44.945Z,23.98
2022-12-19T04:36:47.663Z,21.85
2022-12-19T04:41:49.215Z,21.60
2022-12-19T04:46:51.066Z,20.58
2022-12-19T04:51:52.917Z,21.80
2022-12-19T04:56:54.651Z,19.95
2022-12-19T05:01:56.310Z,20.67
2022-12-19T05:06:58.709Z,17.88
2022-12-19T05:12:00.444Z,15.65
2022-12-19T05:17:02.190Z,14.27
2022-12-19T05:22:04.140Z,14.52
2022-12-19T05:27:05.994Z,13.25
2022-12-19T05:32:08.222Z,14.18
2022-12-19T05:37:09.785Z,14.75
2022-12-19T05:42:12.668Z,15.70
2022-12-19T05:47:14.388Z,16.02
2022-12-19T05:52:15.999Z,15.68
2022-12-19T05:57:17.700Z,15.32
2022-12-19T06:02:19.746Z,13.20
2022-12-19T06:07:21.548Z,15.50
2022-12-19T06:12:23.288Z,15.07
2022-12-19T06:17:24.904Z,13.45
2022-12-19T06:22:26.484Z,13.85
2022-12-19T06:27:28.008Z,14.18
2022-12-19T06:32:32.363Z,13.13
2022-12-19T06:37:39.570Z,14.00
2022-12-19T06:42:41.255Z,14.88
2022-12-19T06:47:42.824Z,14.23
2022-12-19T06:52:45.240Z,17.30
2022-12-19T06:57:47.501Z,17.10
2022-12-19T07:02:52.022Z,17.13
2022-12-19T07:07:53.833Z,17.40
2022-12-19T07:12:55.348Z,17.13
2022-12-19T07:17:56.856Z,17.40
2022-12-19T07:23:00.846Z,19.50
2022-12-19T07:28:02.476Z,17.60
2022-12-19T07:33:04.946Z,20.38
2022-12-19T07:38:08.833Z,19.67
2022-12-19T07:43:10.710Z,20.02
2022-12-19T07:48:12.176Z,20.42
2022-12-19T07:53:14.045Z,20.00
2022-12-19T07:58:16.327Z,22.33
2022-12-19T08:03:18.098Z,21.10
2022-12-19T08:08:20.636Z,21.75
2022-12-19T08:13:22.230Z,19.85
2022-12-19T08:18:25.032Z,19.02
2022-12-19T08:23:26.746Z,21.80
2022-12-19T08:28:28.361Z,22.48
2022-12-19T08:33:29.966Z,19.60
2022-12-19T08:38:31.776Z,20.10
2022-12-19T08:43:33.782Z,21.45
2022-12-19T08:48:36.749Z,22.27
2022-12-19T08:53:40.097Z,20.65
2022-12-19T08:58:42.535Z,18.30
2022-12-19T09:04:29.826Z,16.63
2022-12-19T09:09:07.453Z,16.25
2022-12-19T09:14:09.047Z,17.38
2022-12-19T09:19:15.520Z,18.13
2022-12-19T09:24:17.131Z,16.65
2022-12-19T09:29:20.633Z,17.15
2022-12-19T09:34:33.236Z,16.33
2022-12-19T09:39:40.643Z,16.33
2022-12-19T09:45:31.908Z,14.30
2022-12-19T09:51:10.477Z,12.80
2022-12-19T09:56:15.978Z,13.77
2022-12-19T10:01:22.651Z,14.90
2022-12-19T10:07:10.428Z,14.23
2022-12-19T10:12:44.663Z,13.20
2022-12-19T10:17:52.510Z,12.98
2022-12-19T10:23:18.070Z,11.65
2022-12-19T10:28:29.086Z,11.70
2022-12-19T10:34:17.097Z,10.93
2022-12-19T10:39:36.058Z,10.60
2022-12-19T10:44:40.093Z,9.90
2022-12-19T10:49:42.068Z,10.60
2022-12-19T10:54:43.922Z,12.18
2022-12-19T10:59:57.431Z,11.95
2022-12-19T11:04:59.323Z,11.65
2022-12-19T11:10:33.938Z,12.07
2022-12-19T11:19:23.334Z,12.05
2022-12-19T11:29:34.221Z,11.30
2022-12-19T11:29:36.671Z,11.40
2022-12-19T11:37:40.817Z,8.73
2022-12-19T11:43:10.799Z,9.20
2022-12-19T11:48:36.405Z,9.02
2022-12-19T11:54:04.644Z,9.02
2022-12-19T11:59:30.804Z,9.07
2022-12-19T12:04:38.129Z,8.90
2022-12-19T12:14:34.598Z,9.48
2022-12-19T12:28:12.472Z,9.35
2022-12-19T12:31:11.835Z,9.32
2022-12-19T12:31:53.295Z,9.45
2022-12-19T12:35:40.776Z,9.35
2022-12-19T12:38:38.554Z,9.35
2022-12-19T12:43:58.800Z,9.82
2022-12-19T12:49:23.997Z,10.68
2022-12-19T12:54:32.447Z,10.25
2022-12-19T12:59:34.412Z,10.50
2022-12-19T13:04:42.877Z,9.18
2022-12-19T13:09:46.222Z,10.55
2022-12-19T13:14:52.288Z,8.30
2022-12-19T13:20:34.939Z,10.00
2022-12-19T13:25:36.683Z,8.80
2022-12-19T13:31:19.337Z,9.50
2022-12-19T13:39:49.683Z,8.48
2022-12-19T13:42:36.557Z,8.80
2022-12-19T13:47:42.371Z,8.95
2022-12-19T13:52:49.136Z,9.10
2022-12-19T13:57:55.272Z,8.52
2022-12-19T14:02:59.193Z,7.35
2022-12-19T14:08:05.105Z,7.88
2022-12-19T14:13:48.419Z,7.15
2022-12-19T14:18:56.194Z,7.10
2022-12-19T14:24:20.564Z,7.68
2022-12-19T14:30:08.591Z,9.38
2022-12-19T14:36:05.242Z,6.95
2022-12-19T14:40:31.753Z,6.07
2022-12-19T14:50:59.897Z,6.72
2022-12-19T14:54:20.958Z,6.70
2022-12-19T14:56:59.108Z,6.93
2022-12-19T15:02:08.130Z,6.95
2022-12-19T15:14:52.307Z,6.53
2022-12-19T15:18:37.859Z,6.68
2022-12-19T15:23:39.784Z,6.82
2022-12-19T15:28:50.831Z,6.88
2022-12-19T15:34:33.760Z,6.43
2022-12-19T15:39:15.363Z,6.47
2022-12-19T15:44:22.273Z,6.82
2022-12-19T15:49:23.810Z,6.37
2022-12-19T15:59:47.102Z,6.40
2022-12-19T16:04:50.718Z,7.05
2022-12-19T16:09:52.979Z,7.18
2022-12-19T16:14:57.820Z,6.88
2022-12-19T16:19:59.334Z,6.25
2022-12-19T16:25:00.920Z,6.10
2022-12-19T16:30:23.948Z,6.20
2022-12-19T16:36:02.300Z,6.25
2022-12-19T16:40:51.870Z,5.68
2022-12-19T16:45:58.106Z,6.07
2022-12-19T16:51:02.851Z,6.40
2022-12-19T16:56:05.113Z,8.82
2022-12-19T17:01:09.910Z,9.77
2022-12-19T17:06:16.438Z,8.15
2022-12-19T17:11:28.702Z,6.05
2022-12-19T17:16:31.164Z,6.25
2022-12-19T17:21:32.795Z,8.10
2022-12-19T17:26:35.383Z,10.50
2022-12-19T17:31:40.637Z,6.47
2022-12-19T17:36:42.347Z,7.63
2022-12-19T17:41:43.909Z,7.63
2022-12-19T17:46:47.394Z,7.15
2022-12-19T17:51:52.204Z,7.32
2022-12-19T17:56:53.840Z,6.25
2022-12-19T18:01:55.566Z,5.72
2022-12-19T18:06:57.148Z,6.03
2022-12-19T18:11:58.657Z,6.57
2022-12-19T18:17:00.705Z,6.00
2022-12-19T18:22:02.385Z,6.10
2022-12-19T18:27:05.389Z,5.63
2022-12-19T18:32:07.909Z,5.53
2022-12-19T18:37:14.796Z,5.40
2022-12-19T18:42:20.797Z,5.80
2022-12-19T18:47:25.443Z,5.68
2022-12-19T18:52:27.059Z,5.95
2022-12-19T18:57:28.680Z,5.13
2022-12-19T19:02:30.928Z,6.57
2022-12-19T19:07:32.688Z,6.70
2022-12-19T19:12:34.244Z,5.95
2022-12-19T19:17:35.821Z,5.15
2022-12-19T19:22:37.449Z,5.45
2022-12-19T19:27:39.946Z,7.65
2022-12-19T19:32:48.146Z,7.00
2022-12-19T19:37:52.774Z,6.78
2022-12-19T19:42:54.265Z,5.60
2022-12-19T19:47:55.796Z,6.22
2022-12-19T19:52:58.151Z,6.32
2022-12-19T19:57:59.761Z,7.10
2022-12-19T20:03:06.190Z,6.05
2022-12-19T20:08:08.952Z,7.18
2022-12-19T20:13:11.203Z,7.93
2022-12-19T20:18:12.869Z,6.28
2022-12-19T20:23:15.640Z,7.50
2022-12-19T20:28:17.990Z,6.35
2022-12-19T20:33:19.542Z,6.45
2022-12-19T20:38:21.027Z,6.35
2022-12-19T20:43:23.794Z,6.25
2022-12-19T20:48:25.349Z,6.45
2022-12-19T20:53:27.335Z,5.70
2022-12-19T20:58:30.493Z,6.32
2022-12-19T21:03:32.636Z,6.20
2022-12-19T21:08:35.134Z,6.97
2022-12-19T21:13:38.300Z,6.22
2022-12-19T21:18:41.457Z,7.00
2022-12-19T21:23:43.686Z,6.60
2022-12-19T21:28:45.263Z,6.20
2022-12-19T21:33:47.584Z,6.20
2022-12-19T21:38:52.375Z,5.55
2022-12-19T21:43:55.786Z,5.50
2022-12-19T21:48:57.404Z,6.68
2022-12-19T21:54:01.033Z,6.55
2022-12-19T21:59:09.776Z,5.97
2022-12-19T22:04:17.928Z,6.10
2022-12-19T22:09:22.626Z,6.05
2022-12-19T22:14:24.215Z,6.03
2022-12-19T22:19:26.998Z,5.85
2022-12-19T22:24:28.577Z,6.07
2022-12-19T22:29:30.104Z,6.38
2022-12-19T22:34:31.917Z,5.60
2022-12-19T22:39:33.495Z,6.18
2022-12-19T22:44:35.094Z,5.80
2022-12-19T22:49:36.595Z,5.93
2022-12-19T22:54:38.162Z,5.97
2022-12-19T22:59:40.472Z,5.78
2022-12-19T23:04:42.539Z,5.55
2022-12-19T23:09:44.110Z,5.95
2022-12-19T23:14:49.572Z,5.35
2022-12-19T23:19:51.029Z,4.80
2022-12-19T23:24:52.580Z,5.10
2022-12-19T23:29:54.117Z,5.65
2022-12-19T23:34:55.657Z,5.47
2022-12-19T23:39:57.250Z,5.63
2022-12-19T23:44:58.755Z,5.82
2022-12-19T23:50:00.299Z,5.40
2022-12-19T23:55:01.780Z,5.85
